createdAt,value
2022-10-22T00:02:23.867Z,8.20
2022-10-22T00:04:51.391Z,8.10
2022-10-22T00:07:18.850Z,7.53
2022-10-22T00:09:45.908Z,7.43
2022-10-22T00:12:15.057Z,8.02
2022-10-22T00:14:42.277Z,7.78
2022-10-22T00:17:11.592Z,7.78
2022-10-22T00:19:42.136Z,7.93
2022-10-22T00:22:10.194Z,7.03
2022-10-22T00:24:38.934Z,7.45
2022-10-22T00:27:07.450Z,7.32
2022-10-22T00:29:35.663Z,7.32
2022-10-22T00:32:03.532Z,7.80
2022-10-22T00:34:30.026Z,7.40
2022-10-22T00:36:56.599Z,7.53
2022-10-22T00:39:26.018Z,7.40
2022-10-22T00:41:54.787Z,7.30
2022-10-22T00:44:59.024Z,7.00
2022-10-22T00:47:27.425Z,7.10
2022-10-22T00:49:55.433Z,6.45
2022-10-22T00:52:22.836Z,6.97
2022-10-22T00:54:50.072Z,7.18
2022-10-22T00:57:18.125Z,7.43
2022-10-22T00:59:44.761Z,7.70
2022-10-22T01:02:11.651Z,7.38
2022-10-22T01:04:38.358Z,7.40
2022-10-22T01:07:05.159Z,8.02
2022-10-22T01:09:52.879Z,7.60
2022-10-22T01:12:39.795Z,7.55
2022-10-22T01:15:12.541Z,7.60
2022-10-22T01:18:35.073Z,7.40
2022-10-22T01:21:26.743Z,7.35
2022-10-22T01:24:12.197Z,7.75
2022-10-22T01:26:50.595Z,8.05
2022-10-22T01:29:30.043Z,7.20
2022-10-22T01:32:04.189Z,7.43
2022-10-22T01:34:32.204Z,6.57
2022-10-22T01:36:59.989Z,6.80
2022-10-22T01:39:29.404Z,6.28
2022-10-22T01:41:57.257Z,6.40
2022-10-22T01:44:32.329Z,6.35
2022-10-22T01:47:29.885Z,6.80
2022-10-22T01:50:34.795Z,6.65
2022-10-22T01:53:27.276Z,7.25
2022-10-22T01:56:01.562Z,7.22
2022-10-22T01:58:55.726Z,13.43
2022-10-22T02:02:04.669Z,6.40
2022-10-22T02:04:44.307Z,6.38
2022-10-22T02:07:15.145Z,5.43
2022-10-22T02:09:43.782Z,5.97
2022-10-22T02:12:11.405Z,5.93
2022-10-22T02:14:41.176Z,6.07
2022-10-22T02:17:12.260Z,5.55
2022-10-22T02:19:47.880Z,5.00
2022-10-22T02:22:14.624Z,5.30
2022-10-22T02:24:41.669Z,5.57
2022-10-22T02:27:26.876Z,4.90
2022-10-22T02:30:04.852Z,4.90
2022-10-22T02:32:39.094Z,5.13
2022-10-22T02:35:07.233Z,5.07
2022-10-22T02:37:34.015Z,5.13
2022-10-22T02:40:00.445Z,5.32
2022-10-22T02:42:28.629Z,4.65
2022-10-22T02:44:55.146Z,4.30
2022-10-22T02:47:21.591Z,4.30
2022-10-22T02:49:48.145Z,4.57
2022-10-22T02:52:14.619Z,4.82
2022-10-22T02:54:41.068Z,5.25
2022-10-22T02:57:07.702Z,4.50
2022-10-22T02:59:34.329Z,4.55
2022-10-22T03:02:00.788Z,4.78
2022-10-22T03:04:27.442Z,4.65
2022-10-22T03:06:53.837Z,4.75
2022-10-22T03:09:22.752Z,4.80
2022-10-22T03:11:52.011Z,5.53
2022-10-22T03:14:18.878Z,4.35
2022-10-22T03:16:45.313Z,5.40
2022-10-22T03:19:11.859Z,4.82
2022-10-22T03:21:47.535Z,4.68
2022-10-22T03:24:19.170Z,4.80
2022-10-22T03:26:48.576Z,3.90
2022-10-22T03:29:15.992Z,3.70
2022-10-22T03:31:42.387Z,3.60
2022-10-22T03:34:09.021Z,3.88
2022-10-22T03:36:35.421Z,2.60
2022-10-22T03:39:02.550Z,3.15
2022-10-22T03:41:29.226Z,3.10
2022-10-22T03:43:57.358Z,2.60
2022-10-22T03:46:23.843Z,2.42
2022-10-22T03:48:50.274Z,2.53
2022-10-22T03:51:16.846Z,2.60
2022-10-22T03:53:43.316Z,2.60
2022-10-22T03:56:11.647Z,2.58
2022-10-22T03:58:40.769Z,2.40
2022-10-22T04:01:09.220Z,5.07
2022-10-22T04:03:36.271Z,2.38
2022-10-22T04:06:08.264Z,2.42
2022-10-22T04:08:35.495Z,2.15
2022-10-22T04:11:02.390Z,2.25
2022-10-22T04:13:28.831Z,2.38
2022-10-22T04:15:55.475Z,2.10
2022-10-22T04:18:23.245Z,2.20
2022-10-22T04:20:52.033Z,2.33
2022-10-22T04:23:18.511Z,2.20
2022-10-22T04:25:44.926Z,2.13
2022-10-22T04:28:11.298Z,2.20
2022-10-22T04:30:37.736Z,1.98
2022-10-22T04:33:04.220Z,2.30
2022-10-22T04:35:30.648Z,2.20
2022-10-22T04:37:57.048Z,2.85
2022-10-22T04:40:23.410Z,2.67
2022-10-22T04:42:49.795Z,2.53
2022-10-22T04:45:16.243Z,2.38
2022-10-22T04:47:42.743Z,2.25
2022-10-22T04:50:09.627Z,2.22
2022-10-22T04:52:36.086Z,2.42
2022-10-22T04:55:02.573Z,2.22
2022-10-22T04:57:32.610Z,2.10
2022-10-22T04:59:59.039Z,2.40
2022-10-22T05:02:34.460Z,2.36
2022-10-22T05:05:00.886Z,2.15
2022-10-22T05:07:27.327Z,2.25
2022-10-22T05:09:53.972Z,2.28
2022-10-22T05:12:20.438Z,2.42
2022-10-22T05:14:46.802Z,2.60
2022-10-22T05:17:13.289Z,2.83
2022-10-22T05:19:39.687Z,2.55
2022-10-22T05:22:06.231Z,2.63
2022-10-22T05:24:34.286Z,2.80
2022-10-22T05:27:00.741Z,3.42
2022-10-22T05:29:27.851Z,3.35
2022-10-22T05:31:54.358Z,3.13
2022-10-22T05:34:20.755Z,3.20
2022-10-22T05:36:47.136Z,3.38
2022-10-22T05:39:13.538Z,3.42
2022-10-22T05:41:40.111Z,3.30
2022-10-22T05:44:06.550Z,3.53
2022-10-22T05:46:35.258Z,2.97
2022-10-22T05:49:04.252Z,2.95
2022-10-22T05:51:32.724Z,3.10
2022-10-22T05:54:01.833Z,2.65
2022-10-22T05:56:31.934Z,2.88
2022-10-22T05:58:58.827Z,2.72
2022-10-22T06:01:30.794Z,3.60
2022-10-22T06:03:59.723Z,3.13
2022-10-22T06:06:28.733Z,2.63
2022-10-22T06:08:59.693Z,4.82
2022-10-22T06:11:27.935Z,2.95
2022-10-22T06:13:56.428Z,5.25
2022-10-22T06:16:22.886Z,3.30
2022-10-22T06:18:49.324Z,3.20
2022-10-22T06:21:16.681Z,3.08
2022-10-22T06:23:43.935Z,2.95
2022-10-22T06:26:11.234Z,3.00
2022-10-22T06:28:38.268Z,2.90
2022-10-22T06:31:04.989Z,5.32
2022-10-22T06:33:34.007Z,3.20
2022-10-22T06:36:08.906Z,3.38
2022-10-22T06:38:35.309Z,2.95
2022-10-22T06:41:08.133Z,2.70
2022-10-22T06:43:35.084Z,2.80
2022-10-22T06:46:05.233Z,2.50
2022-10-22T06:48:31.653Z,11.75
2022-10-22T06:51:05.662Z,3.22
2022-10-22T06:53:32.575Z,2.72
2022-10-22T06:55:59.011Z,2.60
2022-10-22T06:58:25.420Z,2.70
2022-10-22T07:01:01.899Z,3.38
2022-10-22T07:03:28.344Z,4.10
2022-10-22T07:05:54.764Z,4.15
2022-10-22T07:08:22.437Z,3.13
2022-10-22T07:10:48.831Z,3.60
2022-10-22T07:13:15.905Z,3.50
2022-10-22T07:15:42.292Z,2.80
2022-10-22T07:18:08.713Z,2.60
2022-10-22T07:20:35.296Z,2.47
2022-10-22T07:23:01.806Z,2.70
2022-10-22T07:25:28.378Z,2.78
2022-10-22T07:27:54.827Z,2.83
2022-10-22T07:30:21.519Z,2.78
2022-10-22T07:32:47.938Z,2.72
2022-10-22T07:35:14.491Z,2.83
2022-10-22T07:37:41.131Z,3.13
2022-10-22T07:40:08.749Z,3.42
2022-10-22T07:42:35.243Z,3.17
2022-10-22T07:45:01.739Z,2.80
2022-10-22T07:47:28.142Z,2.20
2022-10-22T07:49:54.485Z,1.83
2022-10-22T07:52:20.891Z,2.38
2022-10-22T07:54:47.385Z,2.10
2022-10-22T07:57:13.840Z,2.10
2022-10-22T07:59:40.352Z,1.90
2022-10-22T08:02:07.062Z,1.98
2022-10-22T08:04:33.484Z,2.15
2022-10-22T08:07:00.871Z,1.40
2022-10-22T08:09:27.307Z,1.70
2022-10-22T08:11:54.388Z,1.73
2022-10-22T08:14:20.873Z,1.90
2022-10-22T08:16:47.314Z,2.00
2022-10-22T08:19:13.859Z,2.35
2022-10-22T08:21:40.332Z,1.67
2022-10-22T08:26:33.624Z,2.58
2022-10-22T08:29:00.135Z,1.60
2022-10-22T08:31:26.636Z,1.60
2022-10-22T08:33:53.083Z,1.80
2022-10-22T08:36:19.638Z,1.90
2022-10-22T08:38:46.207Z,2.10
2022-10-22T08:41:18.270Z,2.00
2022-10-22T08:43:44.654Z,4.10
2022-10-22T08:46:25.481Z,1.60
2022-10-22T08:49:04.690Z,1.52
2022-10-22T08:51:34.400Z,1.70
2022-10-22T08:54:22.751Z,1.60
2022-10-22T08:57:12.660Z,1.60
2022-10-22T08:59:51.292Z,1.42
2022-10-22T09:02:29.775Z,1.42
2022-10-22T09:05:19.772Z,1.70
2022-10-22T09:07:50.168Z,2.05
2022-10-22T09:10:24.576Z,1.70
2022-10-22T09:12:51.236Z,2.45
2022-10-22T09:15:19.598Z,1.90
2022-10-22T09:18:10.728Z,1.23
2022-10-22T09:21:13.041Z,1.45
2022-10-22T09:23:45.479Z,1.70
2022-10-22T09:26:16.579Z,1.45
2022-10-22T09:28:43.727Z,1.25
2022-10-22T09:31:13.308Z,1.58
2022-10-22T09:33:42.525Z,2.17
2022-10-22T09:36:15.561Z,1.13
2022-10-22T09:38:47.656Z,1.15
2022-10-22T09:41:15.355Z,0.98
2022-10-22T09:43:41.898Z,1.30
2022-10-22T09:46:17.470Z,1.10
2022-10-22T09:48:50.108Z,1.02
2022-10-22T09:51:35.416Z,1.10
2022-10-22T09:54:13.227Z,1.00
2022-10-22T09:56:43.220Z,0.70
2022-10-22T09:59:15.556Z,0.80
2022-10-22T10:01:42.359Z,0.63
2022-10-22T10:04:12.464Z,0.68
2022-10-22T10:06:41.286Z,1.50
2022-10-22T10:09:22.297Z,1.10
2022-10-22T10:12:24.803Z,0.80
2022-10-22T10:15:16.115Z,1.17
2022-10-22T10:18:06.427Z,0.90
2022-10-22T10:20:49.298Z,1.10
2022-10-22T10:23:44.203Z,1.65
2022-10-22T10:26:19.685Z,0.90
2022-10-22T10:29:00.128Z,0.90
2022-10-22T10:31:44.412Z,0.80
2022-10-22T10:34:10.891Z,0.95
2022-10-22T10:36:50.881Z,1.15
2022-10-22T10:39:40.665Z,1.00
2022-10-22T10:42:42.143Z,0.88
2022-10-22T10:45:32.239Z,1.00
2022-10-22T10:48:14.433Z,1.08
2022-10-22T10:50:56.013Z,0.90
2022-10-22T10:53:49.660Z,1.17
2022-10-22T10:56:22.000Z,1.23
2022-10-22T10:59:07.270Z,0.80
2022-10-22T11:01:53.982Z,0.90
2022-10-22T11:04:42.275Z,0.98
2022-10-22T11:07:23.387Z,0.90
2022-10-22T11:10:13.702Z,1.00
2022-10-22T11:12:45.733Z,0.90
2022-10-22T11:15:22.459Z,0.60
2022-10-22T11:17:49.815Z,0.77
2022-10-22T11:20:18.369Z,0.73
2022-10-22T11:23:18.399Z,1.25
2022-10-22T11:25:49.374Z,0.85
2022-10-22T11:28:20.152Z,0.95
2022-10-22T11:30:53.715Z,0.90
2022-10-22T11:33:26.947Z,0.70
2022-10-22T11:35:54.106Z,0.90
2022-10-22T11:38:25.846Z,1.08
2022-10-22T11:41:13.819Z,0.68
2022-10-22T11:44:11.796Z,0.70
2022-10-22T11:46:54.900Z,0.80
2022-10-22T11:49:42.105Z,1.10
2022-10-22T11:52:25.636Z,0.80
2022-10-22T11:54:57.845Z,1.17
2022-10-22T11:57:39.074Z,1.02
2022-10-22T12:00:41.071Z,0.90
2022-10-22T12:03:43.799Z,1.30
2022-10-22T12:06:13.299Z,0.80
2022-10-22T12:08:48.969Z,0.63
2022-10-22T12:11:27.572Z,0.75
2022-10-22T12:14:16.293Z,1.50
2022-10-22T12:16:57.731Z,0.80
2022-10-22T12:19:35.822Z,1.00
2022-10-22T12:22:14.942Z,0.73
2022-10-22T12:24:46.346Z,0.95
2022-10-22T12:27:25.922Z,0.80
2022-10-22T12:29:58.401Z,0.80
2022-10-22T12:32:37.023Z,0.73
2022-10-22T12:35:09.628Z,1.10
2022-10-22T12:37:37.809Z,1.60
2022-10-22T12:40:25.419Z,0.70
2022-10-22T12:43:01.148Z,0.80
2022-10-22T12:45:30.693Z,0.60
2022-10-22T12:48:02.357Z,0.70
2022-10-22T12:50:39.400Z,3.40
2022-10-22T12:55:42.047Z,0.63
2022-10-22T12:58:12.208Z,0.60
2022-10-22T13:00:39.222Z,0.70
2022-10-22T13:03:07.273Z,0.70
2022-10-22T13:05:39.182Z,1.25
2022-10-22T13:08:10.958Z,0.60
2022-10-22T13:10:49.515Z,0.70
2022-10-22T13:13:34.793Z,0.73
2022-10-22T13:16:17.434Z,2.20
2022-10-22T13:18:44.940Z,0.60
2022-10-22T13:21:37.824Z,0.90
2022-10-22T13:24:22.789Z,2.65
2022-10-22T13:26:54.396Z,0.73
2022-10-22T13:29:23.473Z,0.50
2022-10-22T13:31:52.457Z,0.70
2022-10-22T13:34:24.925Z,0.60
2022-10-22T13:36:52.045Z,0.70
2022-10-22T13:39:24.629Z,1.30
2022-10-22T13:41:51.985Z,5.40
2022-10-22T13:44:19.850Z,3.33
2022-10-22T13:46:48.404Z,5.30
2022-10-22T13:49:23.521Z,1.73
2022-10-22T13:51:51.311Z,0.90
2022-10-22T13:54:24.074Z,0.68
2022-10-22T13:57:08.119Z,1.10
2022-10-22T13:59:35.002Z,0.75
2022-10-22T14:02:06.933Z,1.20
2022-10-22T14:04:36.365Z,0.80
2022-10-22T14:07:04.016Z,1.38
2022-10-22T14:09:30.690Z,1.00
2022-10-22T14:11:57.586Z,0.80
2022-10-22T14:14:24.047Z,0.60
2022-10-22T14:16:52.726Z,0.70
2022-10-22T14:19:19.330Z,0.65
2022-10-22T14:21:45.930Z,1.65
2022-10-22T14:24:15.427Z,0.80
2022-10-22T14:26:42.180Z,0.70
2022-10-22T14:29:10.207Z,1.20
2022-10-22T14:31:43.497Z,1.10
2022-10-22T14:34:12.299Z,0.90
2022-10-22T14:36:39.319Z,0.82
2022-10-22T14:39:05.833Z,1.30
2022-10-22T14:41:32.409Z,1.88
2022-10-22T14:43:59.771Z,3.05
2022-10-22T14:46:26.469Z,1.35
2022-10-22T14:48:53.011Z,1.02
2022-10-22T14:51:21.251Z,4.57
2022-10-22T14:53:50.838Z,3.28
2022-10-22T14:56:21.311Z,0.90
2022-10-22T15:01:14.578Z,1.00
2022-10-22T15:03:41.280Z,2.03
2022-10-22T15:06:08.311Z,1.70
2022-10-22T15:08:35.058Z,2.75
2022-10-22T15:11:05.668Z,0.77
2022-10-22T15:16:00.287Z,0.82
2022-10-22T15:18:27.626Z,1.40
2022-10-22T15:20:59.549Z,1.00
2022-10-22T15:23:27.093Z,1.92
2022-10-22T15:25:53.663Z,1.25
2022-10-22T15:28:20.570Z,0.85
2022-10-22T15:30:58.600Z,1.52
2022-10-22T15:33:26.839Z,1.73
2022-10-22T15:35:53.696Z,1.30
2022-10-22T15:38:20.862Z,2.28
2022-10-22T15:40:47.771Z,1.90
2022-10-22T15:43:14.536Z,3.17
2022-10-22T15:45:41.220Z,1.25
2022-10-22T15:48:07.771Z,1.27
2022-10-22T15:50:38.728Z,1.55
2022-10-22T15:53:05.968Z,1.40
2022-10-22T15:55:32.694Z,1.55
2022-10-22T15:58:01.882Z,1.80
2022-10-22T16:00:30.909Z,1.60
2022-10-22T16:02:57.527Z,2.45
2022-10-22T16:05:24.085Z,3.05
2022-10-22T16:07:51.866Z,6.15
2022-10-22T16:10:18.607Z,5.78
2022-10-22T16:12:45.105Z,4.75
2022-10-22T16:15:11.763Z,3.60
2022-10-22T16:17:38.444Z,3.60
2022-10-22T16:20:05.640Z,2.90
2022-10-22T16:22:33.488Z,2.90
2022-10-22T16:25:00.112Z,4.10
2022-10-22T16:27:26.934Z,3.70
2022-10-22T16:29:53.522Z,3.55
2022-10-22T16:32:20.165Z,2.58
2022-10-22T16:34:46.635Z,2.83
2022-10-22T16:37:13.229Z,2.97
2022-10-22T16:39:40.186Z,3.10
2022-10-22T16:42:06.779Z,5.28
2022-10-22T16:44:33.630Z,2.72
2022-10-22T16:47:01.099Z,4.90
2022-10-22T16:49:27.742Z,3.38
2022-10-22T16:51:54.449Z,2.50
2022-10-22T16:54:21.852Z,2.88
2022-10-22T16:56:52.147Z,3.50
2022-10-22T16:59:18.767Z,3.55
2022-10-22T17:01:45.279Z,24.52
2022-10-22T17:04:17.360Z,9.02
2022-10-22T17:06:44.859Z,3.78
2022-10-22T17:09:12.242Z,3.35
2022-10-22T17:11:40.227Z,3.22
2022-10-22T17:14:09.594Z,3.38
2022-10-22T17:16:36.100Z,3.80
2022-10-22T17:19:10.810Z,4.07
2022-10-22T17:21:37.453Z,4.32
2022-10-22T17:24:04.076Z,3.80
2022-10-22T17:26:33.179Z,4.20
2022-10-22T17:28:59.964Z,5.32
2022-10-22T17:31:32.791Z,5.03
2022-10-22T17:33:59.964Z,6.10
2022-10-22T17:36:30.424Z,9.90
2022-10-22T17:39:01.885Z,6.43
2022-10-22T17:41:33.439Z,8.35
2022-10-22T17:44:05.250Z,10.68
2022-10-22T17:46:32.684Z,20.85
2022-10-22T17:49:02.277Z,4.97
2022-10-22T17:51:30.555Z,9.65
2022-10-22T17:53:57.566Z,8.95
2022-10-22T17:56:32.695Z,8.90
2022-10-22T17:59:02.362Z,9.32
2022-10-22T18:01:35.246Z,7.70
2022-10-22T18:04:08.125Z,7.28
2022-10-22T18:06:35.892Z,8.30
2022-10-22T18:09:07.075Z,13.18
2022-10-22T18:11:36.591Z,7.97
2022-10-22T18:14:04.208Z,6.00
2022-10-22T18:16:31.004Z,5.15
2022-10-22T18:18:58.427Z,31.48
2022-10-22T18:21:27.475Z,5.00
2022-10-22T18:23:55.019Z,5.72
2022-10-22T18:26:25.839Z,7.93
2022-10-22T18:28:53.663Z,12.55
2022-10-22T18:31:23.546Z,13.02
2022-10-22T18:36:22.022Z,6.60
2022-10-22T18:38:54.064Z,5.85
2022-10-22T18:41:21.296Z,5.22
2022-10-22T18:43:55.964Z,6.20
2022-10-22T18:46:23.901Z,6.53
2022-10-22T18:48:53.019Z,7.35
2022-10-22T18:51:19.530Z,5.97
2022-10-22T18:53:58.947Z,5.88
2022-10-22T18:56:32.182Z,11.30
2022-10-22T18:58:58.772Z,11.93
2022-10-22T19:01:29.370Z,20.35
2022-10-22T19:04:04.270Z,19.70
2022-10-22T19:06:34.529Z,23.27
2022-10-22T19:09:04.634Z,10.50
2022-10-22T19:11:31.420Z,9.82
2022-10-22T19:13:58.262Z,10.32
2022-10-22T19:16:25.973Z,8.15
2022-10-22T19:18:58.449Z,9.38
2022-10-22T19:21:26.333Z,11.13
2022-10-22T19:23:56.320Z,9.52
2022-10-22T19:26:24.254Z,9.95
2022-10-22T19:28:50.883Z,7.88
2022-10-22T19:31:20.292Z,9.05
2022-10-22T19:33:47.972Z,8.10
2022-10-22T19:36:17.320Z,22.75
2022-10-22T19:38:46.383Z,27.00
2022-10-22T19:41:16.178Z,14.57
2022-10-22T19:43:44.076Z,10.82
2022-10-22T19:46:11.631Z,6.95
2022-10-22T19:48:38.609Z,7.60
2022-10-22T19:51:09.401Z,11.23
2022-10-22T19:53:38.087Z,8.40
2022-10-22T19:56:07.056Z,7.95
2022-10-22T19:58:34.533Z,8.75
2022-10-22T20:01:08.655Z,8.95
2022-10-22T20:03:36.424Z,11.63
2022-10-22T20:06:05.322Z,17.05
2022-10-22T20:08:34.480Z,12.60
2022-10-22T20:11:01.102Z,7.13
2022-10-22T20:13:27.742Z,9.35
2022-10-22T20:15:54.424Z,11.95
2022-10-22T20:18:22.515Z,14.18
2022-10-22T20:20:49.755Z,7.05
2022-10-22T20:23:16.304Z,8.15
2022-10-22T20:25:44.951Z,14.25
2022-10-22T20:28:13.651Z,8.00
2022-10-22T20:30:44.930Z,8.25
2022-10-22T20:33:11.933Z,8.88
2022-10-22T20:35:38.615Z,7.18
2022-10-22T20:38:07.217Z,9.55
2022-10-22T20:40:33.898Z,9.02
2022-10-22T20:43:00.719Z,6.47
2022-10-22T20:45:28.013Z,10.02
2022-10-22T20:48:01.973Z,7.63
2022-10-22T20:50:31.456Z,7.50
2022-10-22T20:52:58.352Z,6.40
2022-10-22T20:55:24.971Z,6.13
2022-10-22T20:57:51.585Z,6.38
2022-10-22T21:00:18.206Z,6.18
2022-10-22T21:02:44.770Z,7.70
2022-10-22T21:05:11.339Z,6.80
2022-10-22T21:07:37.790Z,7.00
2022-10-22T21:10:04.698Z,6.85
2022-10-22T21:12:31.240Z,23.05
2022-10-22T21:14:57.726Z,30.50
2022-10-22T21:17:24.262Z,8.38
2022-10-22T21:19:50.742Z,6.88
2022-10-22T21:22:17.231Z,6.80
2022-10-22T21:24:43.734Z,7.60
2022-10-22T21:27:10.294Z,6.65
2022-10-22T21:29:36.699Z,5.70
2022-10-22T21:32:03.086Z,5.93
2022-10-22T21:34:30.327Z,7.57
2022-10-22T21:36:56.679Z,6.60
2022-10-22T21:39:23.157Z,6.93
2022-10-22T21:41:49.566Z,6.78
2022-10-22T21:44:19.173Z,6.13
2022-10-22T21:46:45.665Z,7.18
2022-10-22T21:49:12.161Z,5.90
2022-10-22T21:51:38.599Z,6.35
2022-10-22T21:54:05.910Z,7.78
2022-10-22T21:56:36.409Z,5.72
2022-10-22T21:59:04.749Z,6.28
2022-10-22T22:01:31.593Z,7.07
2022-10-22T22:03:58.782Z,7.20
2022-10-22T22:06:30.809Z,7.95
2022-10-22T22:08:59.528Z,5.90
2022-10-22T22:11:27.961Z,5.22
2022-10-22T22:13:56.013Z,6.60
2022-10-22T22:16:28.608Z,5.43
2022-10-22T22:18:59.990Z,6.88
2022-10-22T22:21:27.299Z,5.57
2022-10-22T22:23:54.143Z,5.60
2022-10-22T22:26:26.964Z,5.63
2022-10-22T22:28:57.831Z,6.72
2022-10-22T22:31:27.639Z,5.43
2022-10-22T22:34:06.470Z,5.65
2022-10-22T22:36:40.323Z,5.00
2022-10-22T22:39:09.043Z,5.35
2022-10-22T22:41:35.701Z,5.70
2022-10-22T22:44:02.414Z,5.60
2022-10-22T22:46:29.006Z,4.90
2022-10-22T22:48:55.661Z,5.07
2022-10-22T22:51:22.231Z,5.68
2022-10-22T22:53:48.809Z,8.23
2022-10-22T22:56:16.637Z,7.68
2022-10-22T22:58:44.069Z,4.93
2022-10-22T23:01:25.859Z,4.78
2022-10-22T23:04:04.507Z,4.53
2022-10-22T23:06:34.946Z,4.82
2022-10-22T23:09:02.342Z,4.40
2022-10-22T23:11:28.819Z,4.55
2022-10-22T23:13:58.516Z,5.95
2022-10-22T23:16:27.610Z,4.78
2022-10-22T23:18:55.567Z,6.07
2022-10-22T23:21:28.480Z,7.10
2022-10-22T23:23:57.361Z,19.70
2022-10-22T23:26:27.273Z,15.00
2022-10-22T23:28:54.269Z,4.60
2022-10-22T23:31:21.778Z,4.90
2022-10-22T23:33:48.747Z,5.05
2022-10-22T23:36:15.479Z,4.80
2022-10-22T23:38:42.384Z,4.88
2022-10-22T23:41:08.990Z,4.95
2022-10-22T23:43:36.157Z,5.47
2022-10-22T23:46:04.502Z,4.75
2022-10-22T23:48:31.376Z,4.65
2022-10-22T23:50:57.974Z,4.95
2022-10-22T23:53:24.448Z,5.32
2022-10-22T23:55:50.841Z,6.32
2022-10-22T23:58:17.359Z,5.13
